Hanalei, Hawaii
Current Conditions -  °F | °C
As of 2:53 PM on Monday 22 Dec 2014 (Local Time) from PHLI Reporting Station
Light Rain Light Rain  
Wind Chill: 72°   Ceiling: 3900
Heat Index: 72°   Visibility: 10mi
Dew Point: 61°   Wind: 21mph
Humidity: 68%   Direction: 360°N
Pressure: 30.04"   Gusts: 26mph
Location:  22.2°N, 159.49°W
Report Text: PHLI 230053Z 36018G23KT 10SM -RA FEW023 BKN039 OVC110 22/16 A3004 RMK AO2 RAB46 SLP172 P0000 T02220161
Loading
Personal Weather Stations






























Interactive Weather Map New forecast layout! Learn more

10-Day Weather Forecast

Advertisements
Track Severe Weather on mobile